Time;durP1;ratioP1;P1;durP2;ratioP2;P2;SDS_P1;SDS_P2;PMS_P1;PMS_P2;Temp;Humidity;BMP_temperature;BMP_pressure;BME280_temperature;BME280_humidity;BME280_pressure;Samples;Min_cycle;Max_cycle;Signal;HPM_P1;HPM_P2
2023/02/13 00:02:08;;;;;;;42.50;19.55;;;;;;;11.66;56.21;103866.19;4924679;29;20170;-48
2023/02/13 00:04:33;;;;;;;41.40;19.50;;;;;;;11.75;56.03;103872.00;4918922;29;20039;-42
2023/02/13 00:06:59;;;;;;;44.33;19.77;;;;;;;11.77;56.04;103874.69;4924347;29;20032;-45
2023/02/13 00:09:24;;;;;;;43.20;19.88;;;;;;;11.50;56.23;103873.09;4922086;29;20054;-49
2023/02/13 00:11:50;;;;;;;43.45;20.33;;;;;;;11.48;56.30;103869.47;4923825;29;20178;-45
2023/02/13 00:14:15;;;;;;;42.25;20.60;;;;;;;11.59;56.30;103871.88;4925779;29;20035;-46
2023/02/13 00:16:40;;;;;;;45.45;20.30;;;;;;;11.74;56.04;103870.19;4922061;29;20055;-41
2023/02/13 00:19:06;;;;;;;41.92;20.65;;;;;;;11.61;56.30;103871.97;4925902;28;20039;-46
2023/02/13 00:21:31;;;;;;;46.15;20.88;;;;;;;11.56;55.99;103870.81;4920168;29;20040;-45
2023/02/13 00:23:56;;;;;;;44.33;21.10;;;;;;;11.60;56.12;103868.47;4924311;29;20077;-42
2023/02/13 00:26:22;;;;;;;47.10;21.83;;;;;;;11.50;56.44;103867.88;4924952;28;20440;-45
2023/02/13 00:28:47;;;;;;;46.58;21.42;;;;;;;11.47;56.34;103863.34;4922209;29;20125;-45
2023/02/13 00:31:15;;;;;;;43.35;20.40;;;;;;;11.65;56.07;103859.16;4924726;29;20055;-44
2023/02/13 00:33:40;;;;;;;42.97;20.40;;;;;;;11.38;56.63;103862.84;4922817;29;20047;-45
2023/02/13 00:36:11;;;;;;;44.00;21.23;;;;;;;11.48;56.43;103865.16;4926115;29;20103;-47
2023/02/13 00:38:38;;;;;;;42.45;20.30;;;;;;;11.58;56.14;103857.03;4922208;29;20608;-47
2023/02/13 00:41:03;;;;;;;43.53;20.63;;;;;;;11.56;56.32;103858.66;4925575;28;20073;-47
2023/02/13 00:43:29;;;;;;;43.40;19.63;;;;;;;11.67;55.54;103862.78;4922128;28;20040;-42
2023/02/13 00:45:55;;;;;;;41.50;20.10;;;;;;;11.62;55.92;103858.09;4925818;29;20383;-45
2023/02/13 00:48:20;;;;;;;43.28;19.73;;;;;;;11.46;56.09;103858.06;4925797;29;20063;-48
2023/02/13 00:50:46;;;;;;;43.45;20.67;;;;;;;11.69;55.64;103862.88;4922675;29;20035;-44
2023/02/13 00:53:12;;;;;;;40.05;19.63;;;;;;;11.63;56.01;103854.69;4927289;29;20058;-47
2023/02/13 00:55:37;;;;;;;40.33;19.45;;;;;;;11.66;55.93;103855.75;4926826;29;20036;-45
2023/02/13 00:58:02;;;;;;;40.78;19.00;;;;;;;11.60;56.14;103858.00;4929948;29;20027;-49
2023/02/13 01:00:28;;;;;;;44.58;20.35;;;;;;;11.75;55.79;103856.31;4924655;28;20040;-44
2023/02/13 01:02:53;;;;;;;41.70;20.15;;;;;;;11.08;57.24;103850.63;4927287;28;20397;-46
2023/02/13 01:05:18;;;;;;;44.50;20.92;;;;;;;11.37;56.56;103848.88;4926670;28;20038;-45
2023/02/13 01:07:44;;;;;;;44.33;21.10;;;;;;;11.55;56.17;103842.88;4923424;29;20036;-43
2023/02/13 01:10:09;;;;;;;44.63;20.27;;;;;;;11.40;56.66;103830.75;4926612;29;20035;-44
2023/02/13 01:12:34;;;;;;;41.65;19.85;;;;;;;11.46;56.39;103838.06;4921226;29;20086;-47
2023/02/13 01:15:00;;;;;;;44.70;20.77;;;;;;;11.49;56.35;103840.84;4926126;29;20034;-44
2023/02/13 01:17:25;;;;;;;43.75;21.08;;;;;;;11.55;56.33;103840.28;4922470;28;20040;-46
2023/02/13 01:19:50;;;;;;;43.17;21.70;;;;;;;11.66;56.22;103845.28;4925519;28;20090;-45
2023/02/13 01:22:16;;;;;;;42.50;20.90;;;;;;;11.60;56.74;103837.09;4926491;29;20105;-44
2023/02/13 01:24:41;;;;;;;44.05;21.20;;;;;;;11.61;56.24;103838.91;4922206;29;20085;-44
2023/02/13 01:27:06;;;;;;;45.75;20.77;;;;;;;11.62;56.15;103839.81;4926794;29;20043;-42
2023/02/13 01:29:32;;;;;;;43.97;21.05;;;;;;;11.56;56.66;103834.25;4922902;29;20035;-42
2023/02/13 01:31:57;;;;;;;42.00;20.45;;;;;;;11.63;56.38;103842.53;4925733;29;20032;-44
2023/02/13 01:34:22;;;;;;;43.17;21.05;;;;;;;11.66;56.27;103832.22;4927018;28;20060;-45
2023/02/13 01:36:47;;;;;;;46.42;20.77;;;;;;;11.72;55.95;103835.19;4922320;28;20043;-43
2023/02/13 01:39:13;;;;;;;42.75;21.00;;;;;;;11.58;56.64;103843.97;4925061;28;20027;-47
2023/02/13 01:41:38;;;;;;;46.38;22.40;;;;;;;11.43;56.70;103834.34;4922182;28;20135;-45
2023/02/13 01:44:42;;;;;;;45.50;21.55;;;;;;;11.24;56.96;103835.00;4925555;29;20440;-43
2023/02/13 01:47:10;;;;;;;47.83;21.45;;;;;;;11.50;56.13;103837.41;4921253;29;20031;-44
2023/02/13 01:49:35;;;;;;;46.53;21.67;;;;;;;11.46;56.88;103838.06;4920160;29;20094;-45
2023/02/13 01:52:01;;;;;;;44.70;21.75;;;;;;;11.60;56.34;103836.22;4925458;29;20043;-45
2023/02/13 01:54:30;;;;;;;42.38;20.13;;;;;;;11.59;56.47;103829.19;4922025;29;20036;-46
2023/02/13 01:56:59;;;;;;;46.47;21.33;;;;;;;11.67;56.66;103838.34;4924861;29;20048;-49
2023/02/13 01:59:30;;;;;;;48.03;22.33;;;;;;;11.46;57.05;103837.16;4924731;29;20039;-46
2023/02/13 02:01:57;;;;;;;45.40;21.08;;;;;;;11.59;56.58;103837.00;4921162;29;20345;-44
2023/02/13 02:04:30;;;;;;;48.10;22.27;;;;;;;11.62;56.64;103834.59;4922021;29;20086;-44
2023/02/13 02:07:03;;;;;;;45.78;21.98;;;;;;;11.57;56.80;103829.13;4923049;29;20063;-49
2023/02/13 02:09:33;;;;;;;46.33;22.05;;;;;;;11.47;57.25;103829.38;4921544;29;20448;-45
2023/02/13 02:12:00;;;;;;;47.53;22.63;;;;;;;11.56;56.64;103831.63;4924569;29;20131;-50
2023/02/13 02:14:26;;;;;;;45.97;22.08;;;;;;;11.17;57.61;103828.53;4921347;29;20071;-45
2023/02/13 02:16:52;;;;;;;46.13;22.17;;;;;;;11.49;57.11;103827.78;4923432;29;20048;-43
2023/02/13 02:19:53;;;;;;;46.88;22.13;;;;;;;11.60;57.09;103831.88;4924239;29;20118;-44
2023/02/13 02:22:43;;;;;;;48.00;21.92;;;;;;;11.39;57.46;103825.47;4928398;28;20405;-44
2023/02/13 02:25:26;;;;;;;45.20;21.95;;;;;;;11.51;57.02;103828.78;4921615;29;20106;-43
2023/02/13 02:28:21;;;;;;;48.35;21.95;;;;;;;11.57;57.09;103828.22;4919582;29;20094;-44
2023/02/13 02:31:28;;;;;;;46.00;21.25;;;;;;;11.58;57.06;103828.31;4919142;29;20038;-46
2023/02/13 02:34:28;;;;;;;46.97;21.33;;;;;;;11.49;57.26;103827.78;4939196;28;20058;-45
2023/02/13 02:36:56;;;;;;;44.20;20.30;;;;;;;11.59;57.18;103827.47;4940410;28;20069;-42
2023/02/13 02:41:58;;;;;;;49.17;22.10;;;;;;;11.40;57.52;103822.91;5036021;28;20045;-40
2023/02/13 02:44:33;;;;;;;44.58;21.52;;;;;;;11.48;57.46;103822.44;5042781;28;20036;-43
2023/02/13 02:50:25;;;;;;;48.95;21.17;;;;;;;11.52;57.48;103809.66;5038264;28;20519;-43
2023/02/13 02:53:12;;;;;;;42.72;21.30;;;;;;;11.36;57.76;103817.44;5038974;28;20448;-42
2023/02/13 02:56:04;;;;;;;49.92;22.67;;;;;;;11.36;57.31;103815.72;5038608;28;20052;-40
2023/02/13 03:07:13;;;;;;;47.00;21.45;;;;;;;11.56;57.33;103809.03;5041600;28;20051;-41
2023/02/13 03:15:16;;;;;;;43.45;21.27;;;;;;;11.59;57.30;103811.78;5043939;28;20505;-41
2023/02/13 03:24:22;;;;;;;45.08;21.45;;;;;;;11.54;57.60;103808.03;5038828;28;20655;-41
2023/02/13 03:26:54;;;;;;;46.22;21.60;;;;;;;11.55;57.26;103806.31;5036977;28;20055;-43
2023/02/13 03:32:38;;;;;;;46.88;20.90;;;;;;;11.61;57.12;103804.94;5035393;28;20399;-41
2023/02/13 03:38:35;;;;;;;46.03;21.83;;;;;;;11.27;58.34;103799.53;5038627;28;20335;-42
2023/02/13 03:41:17;;;;;;;47.00;21.25;;;;;;;11.46;57.79;103800.59;5036662;28;20086;-41
2023/02/13 03:43:54;;;;;;;48.03;22.02;;;;;;;11.35;58.12;103793.03;5038411;28;20498;-41
2023/02/13 03:46:21;;;;;;;44.90;21.23;;;;;;;11.35;58.06;103790.41;5040860;28;20025;-40
2023/02/13 03:51:40;;;;;;;47.75;21.38;;;;;;;11.22;58.07;103781.81;5039046;28;20075;-42
2023/02/13 03:54:18;;;;;;;48.42;21.77;;;;;;;11.05;58.94;103798.22;5039128;28;20150;-41
2023/02/13 03:59:34;;;;;;;47.05;22.10;;;;;;;11.26;58.50;103775.94;5037736;28;20067;-41
2023/02/13 04:02:11;;;;;;;51.88;22.45;;;;;;;11.22;58.78;103772.25;5044612;28;20028;-41
2023/02/13 04:05:09;;;;;;;48.03;22.23;;;;;;;11.44;58.24;103786.53;5041747;28;20044;-42
2023/02/13 04:07:35;;;;;;;45.03;21.20;;;;;;;11.37;58.00;103787.91;5041575;28;20319;-39
2023/02/13 04:10:06;;;;;;;47.33;22.27;;;;;;;10.99;58.70;103780.47;5040715;28;20045;-41
2023/02/13 04:12:39;;;;;;;49.28;22.15;;;;;;;11.35;58.40;103782.56;5050880;28;20407;-41
2023/02/13 04:15:15;;;;;;;44.53;21.42;;;;;;;11.36;57.95;103780.88;5045030;28;20033;-42
2023/02/13 04:17:55;;;;;;;47.58;22.45;;;;;;;11.39;58.31;103779.34;5041583;28;21504;-40
2023/02/13 04:20:20;;;;;;;49.38;21.98;;;;;;;11.39;58.33;103788.91;5045625;28;20091;-42
2023/02/13 04:22:47;;;;;;;47.97;22.27;;;;;;;11.48;57.89;103783.25;5042580;28;20033;-41
2023/02/13 04:25:15;;;;;;;45.20;21.23;;;;;;;11.46;58.26;103790.13;5045605;28;20053;-40
2023/02/13 04:27:41;;;;;;;45.97;20.75;;;;;;;11.38;58.04;103781.88;5044010;28;20495;-42
2023/02/13 04:30:08;;;;;;;44.85;21.48;;;;;;;11.39;58.01;103781.06;5050530;28;20044;-42
2023/02/13 04:32:33;;;;;;;42.75;20.92;;;;;;;11.38;58.41;103785.38;5046994;28;20033;-43
2023/02/13 04:34:58;;;;;;;48.28;21.83;;;;;;;11.38;58.08;103785.38;5048331;28;20407;-41
2023/02/13 04:37:24;;;;;;;45.70;21.88;;;;;;;11.39;58.37;103787.19;5041855;28;20065;-41
2023/02/13 04:39:49;;;;;;;48.65;21.88;;;;;;;11.26;58.79;103786.41;5045102;28;20459;-42
2023/02/13 04:42:14;;;;;;;45.00;22.08;;;;;;;11.37;58.46;103780.06;5046053;28;20067;-43
2023/02/13 04:44:40;;;;;;;46.33;21.48;;;;;;;11.39;58.38;103784.56;5040964;28;20367;-43
2023/02/13 04:47:05;;;;;;;48.58;21.83;;;;;;;11.52;57.87;103790.47;5045068;28;20425;-42
2023/02/13 04:49:30;;;;;;;50.55;21.98;;;;;;;11.47;58.11;103782.38;5040594;28;20410;-40
2023/02/13 04:51:55;;;;;;;45.75;21.35;;;;;;;11.38;58.52;103782.75;5059853;28;20040;-40
2023/02/13 04:54:21;;;;;;;44.50;20.70;;;;;;;11.46;58.35;103777.06;5043725;28;20036;-40
2023/02/13 04:56:46;;;;;;;47.30;21.58;;;;;;;11.46;58.05;103780.59;5042138;28;20068;-43
2023/02/13 04:59:11;;;;;;;45.22;20.95;;;;;;;11.40;58.39;103778.50;5044269;28;20116;-41
2023/02/13 05:01:37;;;;;;;45.85;21.30;;;;;;;11.43;57.62;103774.28;5040679;28;20059;-41
2023/02/13 05:04:02;;;;;;;43.75;20.75;;;;;;;11.28;58.75;103774.34;5044605;28;20037;-41
2023/02/13 05:06:27;;;;;;;40.72;19.98;;;;;;;11.47;58.40;103764.06;5039574;28;20036;-40
2023/02/13 05:08:52;;;;;;;42.53;20.60;;;;;;;11.33;58.43;103767.66;5044304;28;20502;-45
2023/02/13 05:11:18;;;;;;;41.70;19.77;;;;;;;11.40;58.27;103768.06;5044339;28;20114;-43
2023/02/13 05:13:43;;;;;;;48.22;20.58;;;;;;;11.15;59.18;103764.00;5041470;28;21141;-43
2023/02/13 05:16:08;;;;;;;44.70;20.17;;;;;;;11.31;58.76;103771.88;5045979;28;20052;-41
2023/02/13 05:18:34;;;;;;;44.45;20.40;;;;;;;11.44;58.55;103765.63;5043537;28;20060;-41
2023/02/13 05:23:43;;;;;;;43.35;20.10;;;;;;;11.25;59.29;103763.69;5040634;28;20103;-40
2023/02/13 05:26:08;;;;;;;41.28;20.15;;;;;;;11.39;58.60;103768.00;5043970;28;20495;-41
2023/02/13 05:31:17;;;;;;;44.53;19.67;;;;;;;11.32;58.91;103764.13;5044555;28;20063;-39
2023/02/13 05:33:42;;;;;;;41.78;19.10;;;;;;;11.37;58.89;103764.38;5041175;28;20037;-40
2023/02/13 05:36:08;;;;;;;41.92;19.25;;;;;;;11.36;59.03;103766.09;5045132;28;20033;-42
2023/02/13 05:38:33;;;;;;;42.17;19.48;;;;;;;11.39;58.79;103761.06;5041929;28;20061;-40
2023/02/13 05:40:59;;;;;;;39.85;18.98;;;;;;;11.38;59.27;103763.56;5045413;28;20041;-42
2023/02/13 05:43:25;;;;;;;43.50;20.63;;;;;;;11.36;59.06;103765.19;5042121;28;20056;-40
2023/02/13 05:45:51;;;;;;;39.42;18.55;;;;;;;11.36;59.06;103767.81;5046246;28;20033;-43
2023/02/13 05:48:16;;;;;;;42.08;18.60;;;;;;;11.40;59.10;103770.66;5045916;28;20682;-40
2023/02/13 05:50:42;;;;;;;39.70;18.92;;;;;;;11.52;58.77;103774.81;5040229;28;20128;-42
2023/02/13 05:53:07;;;;;;;43.58;19.20;;;;;;;11.37;59.28;103769.59;5043061;28;20087;-41
2023/02/13 05:55:32;;;;;;;40.03;18.88;;;;;;;11.33;59.39;103775.50;5039762;28;20139;-43
2023/02/13 05:57:57;;;;;;;39.90;19.38;;;;;;;11.39;59.09;103771.50;5043383;28;20037;-41
2023/02/13 06:00:24;;;;;;;41.10;18.73;;;;;;;11.35;59.27;103766.91;5043392;28;20079;-39
2023/02/13 06:02:49;;;;;;;38.63;18.92;;;;;;;11.13;59.84;103763.91;5040343;28;20654;-41
2023/02/13 06:05:15;;;;;;;40.72;18.75;;;;;;;11.43;59.28;103769.06;5042578;28;20116;-43
2023/02/13 06:07:40;;;;;;;40.35;19.48;;;;;;;11.50;58.93;103765.97;5039749;28;20445;-41
2023/02/13 06:10:06;;;;;;;41.80;19.92;;;;;;;11.36;59.41;103768.72;5043548;28;20025;-45
2023/02/13 06:12:31;;;;;;;40.78;18.73;;;;;;;11.34;59.68;103764.22;5039320;28;20051;-41
2023/02/13 06:14:56;;;;;;;40.28;18.98;;;;;;;11.21;59.97;103756.50;5042269;28;20116;-42
2023/02/13 06:17:22;;;;;;;40.67;18.95;;;;;;;11.38;59.57;103758.34;5039397;28;20446;-40
2023/02/13 06:19:47;;;;;;;41.05;18.63;;;;;;;11.31;59.97;103761.44;5042859;28;20032;-40
2023/02/13 06:22:12;;;;;;;45.03;19.23;;;;;;;11.27;60.07;103749.94;5042949;28;20029;-39
2023/02/13 06:24:38;;;;;;;43.95;18.98;;;;;;;11.12;60.67;103746.44;5038536;28;20060;-43
2023/02/13 06:27:03;;;;;;;42.05;18.90;;;;;;;11.04;60.82;103746.84;5042988;28;20037;-41
2023/02/13 06:29:30;;;;;;;43.33;19.02;;;;;;;10.96;61.07;103749.00;5038863;28;20569;-47
2023/02/13 06:31:56;;;;;;;38.65;18.63;;;;;;;11.09;60.76;103748.88;5043211;28;20134;-41
2023/02/13 06:34:21;;;;;;;42.60;19.20;;;;;;;11.25;60.45;103754.16;5040618;28;20156;-39
2023/02/13 06:36:47;;;;;;;39.83;18.50;;;;;;;11.31;60.21;103754.50;5043111;28;20040;-41
2023/02/13 06:39:12;;;;;;;43.28;18.63;;;;;;;11.32;59.84;103758.91;5044036;28;20032;-42
2023/02/13 06:41:37;;;;;;;42.45;18.40;;;;;;;11.30;60.21;103757.00;5039466;28;20040;-43
2023/02/13 06:44:03;;;;;;;39.33;18.65;;;;;;;11.32;60.06;103765.84;5043140;28;20037;-41
2023/02/13 06:46:28;;;;;;;38.53;18.42;;;;;;;11.33;59.85;103762.44;5041397;28;20034;-42
2023/02/13 06:48:53;;;;;;;42.33;18.80;;;;;;;11.29;60.40;103768.28;5044968;28;20052;-44
2023/02/13 06:51:19;;;;;;;39.85;18.73;;;;;;;11.33;60.31;103762.44;5045873;28;20032;-41
2023/02/13 06:53:44;;;;;;;40.40;18.90;;;;;;;11.43;59.95;103767.34;5042129;28;20029;-41
2023/02/13 06:56:10;;;;;;;40.63;18.92;;;;;;;11.36;59.71;103768.72;5046126;28;20037;-40
2023/02/13 06:58:35;;;;;;;42.35;18.65;;;;;;;11.37;60.17;103767.91;5042148;28;20044;-41
2023/02/13 07:01:01;;;;;;;44.67;18.77;;;;;;;11.33;60.47;103776.38;5045954;28;20028;-43
2023/02/13 07:03:26;;;;;;;46.80;20.42;;;;;;;11.38;60.25;103780.16;5042203;28;20041;-46
2023/02/13 07:05:51;;;;;;;43.50;18.65;;;;;;;11.30;60.33;103781.41;5045928;28;20036;-42
2023/02/13 07:08:17;;;;;;;43.97;19.08;;;;;;;11.26;60.05;103775.94;5045956;28;20037;-42
2023/02/13 07:10:43;;;;;;;38.85;18.55;;;;;;;11.45;59.87;103786.63;5041557;28;20041;-42
2023/02/13 07:13:09;;;;;;;44.75;19.02;;;;;;;11.43;59.87;103788.25;5042970;28;20029;-41
2023/02/13 07:15:36;;;;;;;40.97;18.50;;;;;;;11.51;59.90;103793.91;5038310;28;20391;-43
2023/02/13 07:18:01;;;;;;;40.47;18.17;;;;;;;11.50;60.03;103794.72;5042015;28;20473;-43
2023/02/13 07:20:27;;;;;;;40.97;19.13;;;;;;;11.46;60.10;103788.44;5038328;28;20057;-46
2023/02/13 07:23:00;;;;;;;43.40;18.70;;;;;;;11.48;60.05;103792.00;5043879;28;20040;-46
2023/02/13 07:25:26;;;;;;;41.70;19.08;;;;;;;11.55;59.89;103798.47;5041859;28;20037;-41
2023/02/13 07:27:51;;;;;;;45.20;19.52;;;;;;;11.52;60.34;103794.00;5044075;28;20063;-41
2023/02/13 07:30:17;;;;;;;45.28;19.23;;;;;;;11.44;60.48;103795.28;5042005;28;20406;-42
2023/02/13 07:32:42;;;;;;;43.92;19.15;;;;;;;11.48;60.38;103789.38;5038388;28;20045;-41
2023/02/13 07:35:08;;;;;;;43.22;20.00;;;;;;;11.51;60.53;103799.13;5043487;28;20037;-42
2023/02/13 07:37:33;;;;;;;43.15;19.77;;;;;;;11.43;60.62;103801.31;5041593;28;20045;-42
2023/02/13 07:39:58;;;;;;;43.03;19.33;;;;;;;11.59;60.37;103801.34;5047978;28;20029;-44
2023/02/13 07:42:24;;;;;;;43.50;20.00;;;;;;;11.62;60.41;103800.63;5046412;28;20482;-41
2023/02/13 07:44:49;;;;;;;43.97;20.10;;;;;;;11.66;60.54;103794.72;5047446;28;20055;-42
2023/02/13 07:47:14;;;;;;;42.67;19.83;;;;;;;11.69;60.02;103800.16;5047925;28;20041;-42
2023/02/13 07:49:40;;;;;;;42.10;18.88;;;;;;;11.73;60.24;103799.50;5042192;28;25516;-42
2023/02/13 07:52:05;;;;;;;44.33;19.45;;;;;;;11.90;59.68;103801.34;5046646;28;20062;-42
2023/02/13 07:54:31;;;;;;;44.05;19.88;;;;;;;11.85;59.77;103801.91;5043408;28;20037;-47
2023/02/13 07:56:57;;;;;;;43.63;19.58;;;;;;;11.77;59.50;103796.28;5046883;28;20064;-42
2023/02/13 07:59:23;;;;;;;41.95;19.17;;;;;;;11.97;59.37;103807.81;5047173;28;20041;-42
2023/02/13 08:01:48;;;;;;;41.63;19.30;;;;;;;11.93;59.70;103804.13;5043500;28;20575;-41
2023/02/13 08:04:13;;;;;;;43.05;18.83;;;;;;;12.06;59.38;103798.75;5047842;28;20040;-43
2023/02/13 08:06:39;;;;;;;44.80;20.45;;;;;;;12.08;59.51;103801.44;5043057;28;20033;-40
2023/02/13 08:11:53;;;;;;;47.85;21.27;;;;;;;12.08;59.18;103811.88;5043443;28;20045;-41
2023/02/13 08:14:21;;;;;;;49.65;21.13;;;;;;;12.13;59.21;103802.59;5045957;28;20449;-44
2023/02/13 08:16:46;;;;;;;46.05;21.33;;;;;;;12.14;59.10;103807.00;5041650;28;20033;-41
2023/02/13 08:19:11;;;;;;;43.45;20.33;;;;;;;12.22;58.99;103808.31;5045026;28;20074;-42
2023/02/13 08:21:37;;;;;;;43.35;20.20;;;;;;;12.09;59.16;103808.47;5041386;28;20104;-42
2023/02/13 08:24:03;;;;;;;45.97;21.52;;;;;;;12.15;59.12;103808.78;5045372;28;20032;-43
2023/02/13 08:26:30;;;;;;;39.20;20.05;;;;;;;12.22;59.13;103807.41;5041399;28;20025;-44
2023/02/13 08:28:55;;;;;;;47.55;22.15;;;;;;;12.35;59.09;103802.00;5044222;28;20045;-41
2023/02/13 08:31:21;;;;;;;44.38;21.05;;;;;;;12.30;59.04;103796.53;5044670;28;20086;-42
2023/02/13 08:33:46;;;;;;;44.40;21.05;;;;;;;12.37;59.00;103803.91;5040189;28;20061;-41
2023/02/13 08:36:11;;;;;;;46.85;21.48;;;;;;;12.54;58.90;103805.69;5044995;28;20140;-41
2023/02/13 08:38:37;;;;;;;47.58;22.13;;;;;;;12.54;58.52;103807.41;5041158;28;20486;-40
2023/02/13 08:41:02;;;;;;;47.05;21.92;;;;;;;12.43;59.08;103809.47;5067534;22;20052;-43
2023/02/13 08:43:27;;;;;;;48.17;21.92;;;;;;;12.45;58.44;103813.03;5010484;28;20047;-45
2023/02/13 08:45:52;;;;;;;47.70;22.60;;;;;;;12.36;58.99;103809.03;5046661;28;20102;-43
2023/02/13 08:48:18;;;;;;;50.33;23.20;;;;;;;11.68;60.60;103819.25;5046931;28;20547;-48
2023/02/13 08:50:43;;;;;;;49.00;21.58;;;;;;;12.05;59.99;103817.88;5035051;28;20124;-45
2023/02/13 08:53:08;;;;;;;47.47;22.90;;;;;;;12.26;59.51;103817.25;5025604;28;20036;-46
2023/02/13 08:55:34;;;;;;;46.35;22.25;;;;;;;12.49;59.25;103814.09;5024103;28;20038;-48
2023/02/13 08:58:03;;;;;;;45.38;22.50;;;;;;;12.56;59.27;103811.88;5027815;28;20361;-45
2023/02/13 09:00:29;;;;;;;50.58;24.60;;;;;;;12.74;58.54;103814.56;5025359;28;20041;-44
2023/02/13 09:02:58;;;;;;;50.10;24.52;;;;;;;12.89;58.40;103811.81;5025978;28;20045;-45
2023/02/13 09:05:24;;;;;;;51.47;25.65;;;;;;;12.81;58.41;103806.16;5023961;28;20083;-43
2023/02/13 09:07:49;;;;;;;51.05;26.05;;;;;;;12.79;57.98;103809.56;5026066;28;20067;-46
2023/02/13 09:10:14;;;;;;;53.92;26.23;;;;;;;12.86;57.95;103815.19;5027116;28;20037;-46
2023/02/13 09:12:40;;;;;;;53.22;24.95;;;;;;;12.90;58.07;103808.38;5022370;28;20061;-44
2023/02/13 09:15:05;;;;;;;52.83;26.42;;;;;;;13.09;57.66;103813.72;5026220;28;20091;-46
2023/02/13 09:17:30;;;;;;;50.35;26.60;;;;;;;13.18;57.69;103811.56;5022092;28;20507;-45
2023/02/13 09:19:56;;;;;;;51.40;26.25;;;;;;;13.22;57.29;103804.78;5007186;28;20053;-47
2023/02/13 09:22:21;;;;;;;54.70;26.67;;;;;;;13.05;57.58;103808.25;5025978;28;20465;-45
2023/02/13 09:24:46;;;;;;;53.97;27.10;;;;;;;13.30;56.89;103811.25;5021693;28;20030;-44
2023/02/13 09:27:12;;;;;;;57.08;28.13;;;;;;;13.34;56.28;103803.66;5024222;28;20024;-43
2023/02/13 09:29:37;;;;;;;57.45;28.30;;;;;;;12.88;57.40;103810.00;5019642;28;20042;-47
2023/02/13 09:32:04;;;;;;;58.25;28.08;;;;;;;13.11;57.42;103816.41;5023636;28;20026;-45
2023/02/13 09:34:29;;;;;;;52.88;26.65;;;;;;;13.22;56.89;103810.91;5021766;28;20398;-44
2023/02/13 09:36:55;;;;;;;54.33;27.25;;;;;;;12.98;57.14;103813.19;5025111;28;20034;-48
2023/02/13 09:39:20;;;;;;;53.90;27.80;;;;;;;13.12;56.55;103813.88;5024845;28;20562;-45
2023/02/13 09:41:49;;;;;;;55.55;27.85;;;;;;;13.17;56.68;103815.03;5020385;28;20037;-43
2023/02/13 09:44:32;;;;;;;54.70;28.85;;;;;;;13.31;56.72;103810.44;5025470;28;20033;-45
2023/02/13 09:47:23;;;;;;;56.60;28.13;;;;;;;12.74;58.07;103811.03;5022774;28;20036;-43
2023/02/13 09:49:53;;;;;;;59.88;28.67;;;;;;;13.12;56.91;103805.09;5020733;28;20064;-44
2023/02/13 09:52:18;;;;;;;58.90;28.90;;;;;;;13.18;56.71;103808.94;5024624;28;20056;-45
2023/02/13 09:54:43;;;;;;;54.33;27.70;;;;;;;12.99;57.54;103808.84;5021306;28;20061;-44
2023/02/13 09:57:32;;;;;;;55.60;28.55;;;;;;;12.99;57.23;103807.09;5025375;28;20033;-45
2023/02/13 10:00:10;;;;;;;55.35;27.08;;;;;;;12.73;58.15;103807.53;5020354;28;20037;-44
2023/02/13 10:02:52;;;;;;;53.90;27.10;;;;;;;13.03;57.29;103805.53;5020281;28;20038;-44
2023/02/13 10:05:45;;;;;;;55.15;27.73;;;;;;;13.00;57.37;103806.28;5024434;28;20095;-46
2023/02/13 10:08:10;;;;;;;53.67;27.02;;;;;;;12.91;57.46;103805.84;5020434;28;20168;-44
2023/02/13 10:10:57;;;;;;;56.00;27.27;;;;;;;12.85;57.88;103797.66;5023924;28;20125;-46
2023/02/13 10:13:44;;;;;;;55.25;27.13;;;;;;;12.52;58.59;103803.78;5020317;28;20522;-42
2023/02/13 10:16:36;;;;;;;53.70;27.30;;;;;;;12.30;59.59;103812.25;5020387;28;20652;-49
2023/02/13 10:19:10;;;;;;;52.92;26.98;;;;;;;12.60;58.92;103806.00;5020791;28;20033;-44
2023/02/13 10:21:42;;;;;;;50.92;25.90;;;;;;;12.60;58.62;103805.09;5020412;28;20099;-47
2023/02/13 10:24:16;;;;;;;54.42;27.27;;;;;;;12.45;59.54;103804.28;5024575;28;20481;-45
2023/02/13 10:26:45;;;;;;;53.13;27.00;;;;;;;12.28;60.11;103798.16;5020370;28;20033;-48
2023/02/13 10:32:13;;;;;;;60.65;27.13;;;;;;;12.46;59.50;103793.91;5021009;28;20036;-47
2023/02/13 10:34:44;;;;;;;54.55;27.08;;;;;;;12.66;58.75;103800.16;5020677;28;20044;-48
2023/02/13 10:37:17;;;;;;;60.08;27.88;;;;;;;12.73;58.99;103790.91;5023338;28;20037;-48
2023/02/13 10:39:46;;;;;;;56.37;27.03;;;;;;;12.56;58.77;103788.31;5019704;28;20102;-45
2023/02/13 10:42:36;;;;;;;56.35;27.67;;;;;;;12.81;58.50;103797.41;5023737;28;20067;-46
2023/02/13 10:45:18;;;;;;;57.50;27.80;;;;;;;12.92;58.40;103797.16;5019678;28;20043;-46
2023/02/13 10:47:49;;;;;;;56.92;27.73;;;;;;;13.10;58.16;103793.66;5019711;28;20040;-47
2023/02/13 10:50:48;;;;;;;56.47;27.42;;;;;;;13.11;57.74;103782.38;5023248;28;20032;-48
2023/02/13 10:53:17;;;;;;;58.03;27.38;;;;;;;13.08;58.07;103783.09;5020796;28;20037;-48
2023/02/13 10:56:08;;;;;;;53.90;27.58;;;;;;;13.26;57.34;103784.03;5021564;28;20048;-46
2023/02/13 10:58:56;;;;;;;62.63;28.33;;;;;;;13.18;57.05;103782.75;5005689;28;20041;-47
2023/02/13 11:01:37;;;;;;;60.58;28.85;;;;;;;13.22;57.34;103786.44;5015329;28;20122;-44
2023/02/13 11:04:09;;;;;;;60.92;29.02;;;;;;;13.16;57.42;103783.50;5024180;28;20223;-43
2023/02/13 11:06:41;;;;;;;58.92;28.55;;;;;;;13.10;57.69;103780.56;5023639;28;20053;-44
2023/02/13 11:09:07;;;;;;;58.80;29.15;;;;;;;13.01;57.84;103776.66;4989919;28;20392;-44
2023/02/13 11:11:35;;;;;;;61.00;29.40;;;;;;;13.31;57.13;103776.38;5019642;28;20038;-44
2023/02/13 11:14:12;;;;;;;61.28;29.05;;;;;;;13.45;56.84;103785.81;5023337;28;20069;-43
2023/02/13 11:16:49;;;;;;;53.65;27.58;;;;;;;13.46;56.42;103769.28;5019582;28;20041;-47
2023/02/13 11:19:54;;;;;;;61.13;29.20;;;;;;;13.14;57.37;103774.69;5023488;28;20202;-45
2023/02/13 11:22:28;;;;;;;60.45;29.05;;;;;;;13.39;56.95;103767.19;5020377;28;20033;-44
2023/02/13 11:25:00;;;;;;;58.03;28.83;;;;;;;13.23;57.11;103752.47;5019516;28;20044;-46
2023/02/13 11:27:37;;;;;;;59.65;28.83;;;;;;;13.34;56.88;103753.88;5023964;28;20511;-46
2023/02/13 11:30:07;;;;;;;59.13;29.42;;;;;;;13.15;57.81;103750.28;5020555;28;20060;-43
2023/02/13 11:32:34;;;;;;;57.58;28.30;;;;;;;13.52;56.63;103745.06;5020366;28;20057;-44
2023/02/13 11:35:27;;;;;;;59.33;28.70;;;;;;;13.32;57.09;103741.50;5024226;28;20121;-45
2023/02/13 11:38:10;;;;;;;58.40;28.95;;;;;;;13.39;56.84;103741.88;5013051;28;20495;-45
2023/02/13 11:40:37;;;;;;;59.33;29.20;;;;;;;13.50;56.67;103738.84;5019442;28;20515;-44
2023/02/13 11:43:06;;;;;;;59.38;29.63;;;;;;;13.72;56.04;103733.78;5024047;28;20048;-44
2023/02/13 11:45:32;;;;;;;67.97;29.60;;;;;;;13.77;56.18;103734.91;5020064;28;20038;-43
2023/02/13 11:47:58;;;;;;;58.35;29.05;;;;;;;13.67;56.15;103738.81;5023662;28;20509;-45
2023/02/13 11:50:25;;;;;;;60.97;29.38;;;;;;;13.75;56.15;103734.81;5019054;28;20064;-51
2023/02/13 11:53:19;;;;;;;59.72;29.80;;;;;;;13.77;55.73;103740.13;5023425;28;20407;-46
2023/02/13 11:55:59;;;;;;;59.72;28.95;;;;;;;13.30;57.09;103736.19;5019026;28;20570;-45
2023/02/13 11:58:27;;;;;;;58.08;29.67;;;;;;;13.28;57.65;103736.94;5019064;28;20128;-51
2023/02/13 12:01:06;;;;;;;57.17;28.77;;;;;;;13.49;56.59;103737.03;5022847;28;20526;-44
2023/02/13 12:03:32;;;;;;;58.45;28.42;;;;;;;13.88;54.93;103730.13;5020062;28;20491;-46
2023/02/13 12:06:02;;;;;;;57.42;29.10;;;;;;;13.02;57.42;103727.78;5024623;28;20037;-46
2023/02/13 12:08:28;;;;;;;57.92;28.73;;;;;;;13.67;56.19;103732.66;5003512;28;20563;-42
2023/02/13 12:10:56;;;;;;;58.85;28.88;;;;;;;13.40;56.59;103730.56;5023537;28;20375;-45